Tropical Cyclones
[Index]
Main Index Home Page Stock Weather Photos Extreme Storms Discussion Storm News and Storm Chasing Reports Tropical Cyclones / Hurricanes / Typhoons Weather Data and Links Wild Fires / Bushfires Weather Observation Techniques Weather Picture Catalogue Tornado Pictures and Reports Stock Video Footage and DVDs for sale
Season 2002-2003 Tropical Cyclone HAPE Track Map
Season 2002-2003 Summaries (Operational Data): [AU] [SIO] [SPAC] [SH]
<<- Previous TC | 2002-2003 Season | Next TC ->>

click for intensity scale information  Lat/long Grid: Show Hide

 Date Labels: Show Hide

Operational Tropical Cyclone Data : JTWC Advisories

Name: HAPE
Number: 0317

09 Feb 2003 06:00 UTC to 16 Feb 2003 00:00 UTC

    date/time    lat    long     hPa   cat  kts
2003-02-09 06   12.2    65.5    1000         25          
2003-02-09 12   12.2    65.0    1000         25          
2003-02-09 18   12.6    64.8    1000         25          
2003-02-10 00   13.2    64.4     999         25          
2003-02-10 06   14.5    64.0     998         30          
2003-02-10 12   14.8    63.8     998         30          
2003-02-10 18   15.8    63.7     998         30          
2003-02-11 00   16.7    63.7     997         30          
2003-02-11 06   16.5    64.5     995    1    35          
2003-02-11 12   17.5    65.0     975    2    60          
2003-02-11 18   17.6    66.1     972    2    60          
2003-02-12 00   17.5    67.1     968    3    65          
2003-02-12 06   17.0    68.1     965    3    70          
2003-02-12 12   16.7    69.0     965    3    70          
2003-02-12 18   16.0    70.0     968    3    65          
2003-02-13 00   15.5    70.5     970    3    65          
2003-02-13 06   15.1    71.2     975    2    55          
2003-02-13 12   14.6    72.2     975    2    55          
2003-02-13 18   14.7    72.0     975    2    60          
2003-02-14 00   14.7    72.5     975    2    60          
2003-02-14 06   15.8    73.8     982    2    50          
2003-02-14 12   16.7    73.9     984    2    50          
2003-02-14 18   17.3    74.7     985    2    60          
2003-02-15 00   17.8    75.3     985    2    60          
2003-02-15 06   20.1    76.2     990    1    40          
2003-02-15 12   21.5    77.8     995    1    35          
2003-02-15 18   23.2    78.8     998         30          
2003-02-16 00   23.9    80.0    1000         25          
Winds are 10-min average.

Tropical cyclone tracks developed by Michael Bath using operational warnings and advisories and Google Maps.


[Australian Severe Weather index] [Copyright Notice] [Email Contacts] [Search This Site] [Privacy Policy]
Document: tropical_cyclone_hape.htm Updated: 2 May 2017